Bremerton National Airport
KPWT : now visible

Airfield :











YOU CAN JOIN US ON...

 
LOGIN :

Register | Disclaimer

   EN    FR    IT 

 









Legend :    VFR   Marginal VFR   IFR   Intensive IFR   Very Intensive IFR
Visi :
Ceiling :
>= 8 km
>= 3000ft
5 to 8 km
1000 to 3000 ft
1500m to 5 km
500 to 1000 ft
800 to 1500m
200 to 500 ft
< 800m
< 200 ft
Symbols :   Thunderstorms  Fog  Heavy snow  Heavy precipitations  Wind > 20 kt






- Airport Elevation : 444 ft
- IATA code : PWT


KPWT - Bremerton National

CURRENT METAR :
  • 150756Z AUTO 00000KT 10SM OVC038 03/03 A3004 RMK AO2 SLP191 T00330028 400610022 PNO $

EXPIRED METARs :
  • 150656Z AUTO 22003KT 10SM OVC034 03/03 A3003 RMK AO2 SLP188 T00330028 PNO $
  • 150556Z AUTO 00000KT 10SM OVC032 03/03 A3002 RMK AO2 SLP185 6//// T00330033 10056 20033 51007 PNO $

TAF KPWT
Valid from the 15 at 06:00 until the 16 at 06:00 UTC


150536Z 1506/1606 VRB03KT 3SM BR VCSH SCT007 OVC030
TEMPO 1506/1509 1SM -SHRA BR BKN007
FM150900 00000KT 1/2SM FG VCSH OVC005
FM151900 17004KT P6SM VCSH BKN009 BKN020
FM160000 VRB03KT P6SM BKN022 BKN040
FM160500 VRB02KT P6SM BKN025



MET'MAP, your aeronautical weather chart ! - Copyright ORBIFLY December 2007 - Disclaimer

ORBIFLY MET'MAP TEAM :

Programming & Development : Alexandra Zaïnal
Concept & original design : Baudouin d'Aumeries
Assistance for programming : Marc-Olivier Méhu
Technical & hardware support : Manuel Goepfert

Contact : metmap@orbifly.com




SOURCES & CREDITS :

   NOAA       Earth
Advisory